sensor_id;sensor_type;location;lat;lon;timestamp;pressure;altitude;pressure_sealevel;temperature;humidity
64616;BME280;51027;42.162;24.754;2023-12-04T00:00:22;100139.00;;;5.52;100.00
64616;BME280;51027;42.162;24.754;2023-12-04T00:02:48;100109.63;;;5.33;100.00
64616;BME280;51027;42.162;24.754;2023-12-04T00:05:13;100141.84;;;5.32;100.00
64616;BME280;51027;42.162;24.754;2023-12-04T00:07:39;100119.22;;;5.29;100.00
64616;BME280;51027;42.162;24.754;2023-12-04T00:10:04;100135.88;;;5.17;100.00
64616;BME280;51027;42.162;24.754;2023-12-04T00:12:30;100130.72;;;5.10;100.00
64616;BME280;51027;42.162;24.754;2023-12-04T00:14:56;100124.53;;;5.23;100.00
64616;BME280;51027;42.162;24.754;2023-12-04T00:17:21;100136.69;;;5.26;100.00
64616;BME280;51027;42.162;24.754;2023-12-04T00:19:47;100146.25;;;5.27;100.00
64616;BME280;51027;42.162;24.754;2023-12-04T00:22:13;100139.41;;;5.13;100.00
64616;BME280;51027;42.162;24.754;2023-12-04T00:24:38;100163.69;;;5.20;100.00
64616;BME280;51027;42.162;24.754;2023-12-04T00:27:04;100151.63;;;5.08;100.00
64616;BME280;51027;42.162;24.754;2023-12-04T00:29:30;100175.91;;;5.21;100.00
64616;BME280;51027;42.162;24.754;2023-12-04T00:31:55;100174.34;;;5.02;100.00
64616;BME280;51027;42.162;24.754;2023-12-04T00:34:22;100185.63;;;5.04;100.00
64616;BME280;51027;42.162;24.754;2023-12-04T00:36:48;100201.22;;;5.11;100.00
64616;BME280;51027;42.162;24.754;2023-12-04T00:39:13;100197.84;;;4.99;100.00
64616;BME280;51027;42.162;24.754;2023-12-04T00:41:39;100203.13;;;4.94;100.00
64616;BME280;51027;42.162;24.754;2023-12-04T00:44:04;100150.34;;;4.57;100.00
64616;BME280;51027;42.162;24.754;2023-12-04T00:46:29;100200.63;;;4.80;100.00
64616;BME280;51027;42.162;24.754;2023-12-04T00:48:55;100171.13;;;4.71;100.00
64616;BME280;51027;42.162;24.754;2023-12-04T00:51:20;100173.69;;;4.75;100.00
64616;BME280;51027;42.162;24.754;2023-12-04T00:53:46;100183.28;;;4.72;100.00
64616;BME280;51027;42.162;24.754;2023-12-04T00:56:11;100193.75;;;4.67;100.00
64616;BME280;51027;42.162;24.754;2023-12-04T00:58:40;100199.84;;;4.66;100.00
64616;BME280;51027;42.162;24.754;2023-12-04T01:01:06;100199.81;;;4.69;100.00
64616;BME280;51027;42.162;24.754;2023-12-04T01:03:31;100190.38;;;4.53;100.00
64616;BME280;51027;42.162;24.754;2023-12-04T01:05:59;100201.56;;;4.69;100.00
64616;BME280;51027;42.162;24.754;2023-12-04T01:08:24;100209.44;;;4.58;100.00
64616;BME280;51027;42.162;24.754;2023-12-04T01:10:50;100223.34;;;4.58;100.00
64616;BME280;51027;42.162;24.754;2023-12-04T01:13:15;100197.41;;;4.42;100.00
64616;BME280;51027;42.162;24.754;2023-12-04T01:15:41;100188.72;;;4.38;100.00
64616;BME280;51027;42.162;24.754;2023-12-04T01:18:07;100221.69;;;4.47;100.00
64616;BME280;51027;42.162;24.754;2023-12-04T01:20:33;100210.44;;;4.39;100.00
64616;BME280;51027;42.162;24.754;2023-12-04T01:22:59;100224.34;;;4.44;100.00
64616;BME280;51027;42.162;24.754;2023-12-04T01:25:25;100196.59;;;4.30;100.00
64616;BME280;51027;42.162;24.754;2023-12-04T01:27:50;100202.66;;;4.32;100.00
64616;BME280;51027;42.162;24.754;2023-12-04T01:30:15;100221.69;;;4.50;100.00
64616;BME280;51027;42.162;24.754;2023-12-04T01:32:41;100226.00;;;4.55;100.00
64616;BME280;51027;42.162;24.754;2023-12-04T01:35:07;100231.25;;;4.48;100.00
64616;BME280;51027;42.162;24.754;2023-12-04T01:37:32;100228.66;;;4.45;100.00
64616;BME280;51027;42.162;24.754;2023-12-04T01:39:57;100222.50;;;4.56;100.00
64616;BME280;51027;42.162;24.754;2023-12-04T01:42:23;100230.44;;;4.43;100.00
64616;BME280;51027;42.162;24.754;2023-12-04T01:44:48;100233.91;;;4.37;100.00
64616;BME280;51027;42.162;24.754;2023-12-04T01:47:14;100240.88;;;4.40;100.00
64616;BME280;51027;42.162;24.754;2023-12-04T01:49:40;100246.16;;;4.30;100.00
64616;BME280;51027;42.162;24.754;2023-12-04T01:52:06;100218.38;;;4.20;100.00
64616;BME280;51027;42.162;24.754;2023-12-04T01:54:32;100233.13;;;4.23;100.00
64616;BME280;51027;42.162;24.754;2023-12-04T01:56:58;100248.75;;;4.30;100.00
64616;BME280;51027;42.162;24.754;2023-12-04T01:59:25;100240.97;;;4.17;100.00
64616;BME280;51027;42.162;24.754;2023-12-04T02:01:52;100231.47;;;4.03;100.00
64616;BME280;51027;42.162;24.754;2023-12-04T02:04:18;100248.81;;;4.20;100.00
64616;BME280;51027;42.162;24.754;2023-12-04T02:06:43;100234.91;;;4.15;100.00
64616;BME280;51027;42.162;24.754;2023-12-04T02:09:09;100246.13;;;4.27;100.00
64616;BME280;51027;42.162;24.754;2023-12-04T02:11:39;100244.44;;;4.17;100.00
64616;BME280;51027;42.162;24.754;2023-12-04T02:14:06;100253.13;;;4.21;100.00
64616;BME280;51027;42.162;24.754;2023-12-04T02:16:32;100228.88;;;4.05;100.00
64616;BME280;51027;42.162;24.754;2023-12-04T02:19:00;100233.25;;;4.01;100.00
64616;BME280;51027;42.162;24.754;2023-12-04T02:21:25;100241.00;;;4.08;100.00
64616;BME280;51027;42.162;24.754;2023-12-04T02:23:52;100267.81;;;4.37;100.00
64616;BME280;51027;42.162;24.754;2023-12-04T02:26:30;100262.66;;;4.25;100.00
64616;BME280;51027;42.162;24.754;2023-12-04T02:28:58;100267.91;;;4.17;100.00
64616;BME280;51027;42.162;24.754;2023-12-04T02:31:27;100255.75;;;4.22;100.00
64616;BME280;51027;42.162;24.754;2023-12-04T02:33:56;100273.97;;;4.30;100.00
64616;BME280;51027;42.162;24.754;2023-12-04T02:36:23;100285.16;;;4.46;100.00
64616;BME280;51027;42.162;24.754;2023-12-04T02:38:51;100277.31;;;4.49;100.00
64616;BME280;51027;42.162;24.754;2023-12-04T02:41:16;100265.22;;;4.36;100.00
64616;BME280;51027;42.162;24.754;2023-12-04T02:43:43;100278.25;;;4.43;100.00
64616;BME280;51027;42.162;24.754;2023-12-04T02:46:09;100280.03;;;4.27;100.00
64616;BME280;51027;42.162;24.754;2023-12-04T02:48:34;100299.16;;;4.31;100.00
64616;BME280;51027;42.162;24.754;2023-12-04T02:51:00;100283.44;;;4.43;100.00
64616;BME280;51027;42.162;24.754;2023-12-04T02:53:26;100287.88;;;4.30;100.00
64616;BME280;51027;42.162;24.754;2023-12-04T02:55:51;100283.50;;;4.26;100.00
64616;BME280;51027;42.162;24.754;2023-12-04T02:58:17;100271.41;;;4.19;100.00
64616;BME280;51027;42.162;24.754;2023-12-04T03:00:42;100263.59;;;4.12;100.00
64616;BME280;51027;42.162;24.754;2023-12-04T03:03:08;100257.56;;;3.99;100.00
64616;BME280;51027;42.162;24.754;2023-12-04T03:05:33;100288.78;;;4.20;100.00
64616;BME280;51027;42.162;24.754;2023-12-04T03:07:58;100285.31;;;4.08;100.00
64616;BME280;51027;42.162;24.754;2023-12-04T03:10:24;100299.19;;;4.16;100.00
64616;BME280;51027;42.162;24.754;2023-12-04T03:12:49;100297.56;;;3.89;100.00
64616;BME280;51027;42.162;24.754;2023-12-04T03:15:15;100291.47;;;3.85;100.00
64616;BME280;51027;42.162;24.754;2023-12-04T03:17:40;100318.34;;;4.13;100.00
64616;BME280;51027;42.162;24.754;2023-12-04T03:20:06;100327.94;;;4.00;100.00
64616;BME280;51027;42.162;24.754;2023-12-04T03:22:35;100336.66;;;3.64;100.00
64616;BME280;51027;42.162;24.754;2023-12-04T03:25:01;100326.25;;;3.58;100.00
64616;BME280;51027;42.162;24.754;2023-12-04T03:27:26;100339.25;;;3.64;100.00
64616;BME280;51027;42.162;24.754;2023-12-04T03:29:52;100342.72;;;3.66;100.00
64616;BME280;51027;42.162;24.754;2023-12-04T03:32:17;100337.53;;;3.65;100.00
64616;BME280;51027;42.162;24.754;2023-12-04T03:34:43;100346.22;;;3.70;100.00
64616;BME280;51027;42.162;24.754;2023-12-04T03:37:08;100303.69;;;3.40;100.00
64616;BME280;51027;42.162;24.754;2023-12-04T03:39:34;100353.16;;;3.54;100.00
64616;BME280;51027;42.162;24.754;2023-12-04T03:41:59;100354.03;;;3.53;100.00
64616;BME280;51027;42.162;24.754;2023-12-04T03:44:25;100327.97;;;3.44;100.00
64616;BME280;51027;42.162;24.754;2023-12-04T03:46:50;100345.34;;;3.65;100.00
64616;BME280;51027;42.162;24.754;2023-12-04T03:49:17;100354.00;;;3.74;100.00
64616;BME280;51027;42.162;24.754;2023-12-04T03:51:42;100347.09;;;3.58;100.00
64616;BME280;51027;42.162;24.754;2023-12-04T03:54:08;100337.53;;;3.54;100.00
64616;BME280;51027;42.162;24.754;2023-12-04T03:56:33;100337.53;;;3.42;100.00
64616;BME280;51027;42.162;24.754;2023-12-04T03:58:59;100349.69;;;3.58;100.00
64616;BME280;51027;42.162;24.754;2023-12-04T04:01:24;100345.38;;;3.59;100.00
64616;BME280;51027;42.162;24.754;2023-12-04T04:03:50;100349.66;;;3.67;100.00
64616;BME280;51027;42.162;24.754;2023-12-04T04:06:15;100311.50;;;3.53;100.00
64616;BME280;51027;42.162;24.754;2023-12-04T04:08:41;100357.50;;;3.70;100.00
64616;BME280;51027;42.162;24.754;2023-12-04T04:11:06;100334.94;;;3.60;100.00
64616;BME280;51027;42.162;24.754;2023-12-04T04:13:32;100337.56;;;3.48;90.33
64616;BME280;51027;42.162;24.754;2023-12-04T04:15:57;100369.66;;;3.65;89.96
64616;BME280;51027;42.162;24.754;2023-12-04T04:18:23;100367.03;;;3.64;91.01
64616;BME280;51027;42.162;24.754;2023-12-04T04:20:48;100373.16;;;3.58;90.42
64616;BME280;51027;42.162;24.754;2023-12-04T04:23:14;100380.06;;;3.53;90.29
64616;BME280;51027;42.162;24.754;2023-12-04T04:25:39;100380.94;;;3.54;89.97
64616;BME280;51027;42.162;24.754;2023-12-04T04:28:05;100385.28;;;3.64;89.97
64616;BME280;51027;42.162;24.754;2023-12-04T04:30:33;100397.44;;;3.60;90.45
64616;BME280;51027;42.162;24.754;2023-12-04T04:32:59;100399.16;;;3.63;89.54
64616;BME280;51027;42.162;24.754;2023-12-04T04:35:24;100386.13;;;3.66;89.43
64616;BME280;51027;42.162;24.754;2023-12-04T04:37:50;100407.84;;;3.43;88.77
64616;BME280;51027;42.162;24.754;2023-12-04T04:40:16;100403.50;;;3.49;88.95
64616;BME280;51027;42.162;24.754;2023-12-04T04:42:41;100387.00;;;3.31;88.98
64616;BME280;51027;42.162;24.754;2023-12-04T04:45:07;100413.06;;;3.39;88.51
64616;BME280;51027;42.162;24.754;2023-12-04T04:47:33;100413.03;;;3.33;88.46
64616;BME280;51027;42.162;24.754;2023-12-04T04:49:58;100427.78;;;3.37;88.01
64616;BME280;51027;42.162;24.754;2023-12-04T04:52:24;100420.88;;;3.37;86.75
64616;BME280;51027;42.162;24.754;2023-12-04T04:54:49;100422.53;;;3.11;86.79
64616;BME280;51027;42.162;24.754;2023-12-04T04:57:15;100441.66;;;3.33;87.76
64616;BME280;51027;42.162;24.754;2023-12-04T04:59:40;100414.75;;;3.18;86.05
64616;BME280;51027;42.162;24.754;2023-12-04T05:02:05;100441.63;;;3.25;86.54
64616;BME280;51027;42.162;24.754;2023-12-04T05:04:31;100456.38;;;3.17;86.82
64616;BME280;51027;42.162;24.754;2023-12-04T05:06:56;100432.91;;;3.06;85.68
64616;BME280;51027;42.162;24.754;2023-12-04T05:09:22;100414.69;;;2.97;86.25
64616;BME280;51027;42.162;24.754;2023-12-04T05:11:47;100452.88;;;3.12;87.15
64616;BME280;51027;42.162;24.754;2023-12-04T05:14:13;100438.94;;;2.90;87.40
64616;BME280;51027;42.162;24.754;2023-12-04T05:16:38;100465.88;;;2.98;87.95
64616;BME280;51027;42.162;24.754;2023-12-04T05:19:04;100378.09;;;2.53;87.57
64616;BME280;51027;42.162;24.754;2023-12-04T05:21:29;100471.06;;;3.03;87.88
64616;BME280;51027;42.162;24.754;2023-12-04T05:23:55;100418.91;;;2.69;88.69
64616;BME280;51027;42.162;24.754;2023-12-04T05:26:20;100471.03;;;2.95;89.02
64616;BME280;51027;42.162;24.754;2023-12-04T05:28:46;100477.97;;;2.96;89.61
64616;BME280;51027;42.162;24.754;2023-12-04T05:31:11;100479.69;;;2.89;88.59
64616;BME280;51027;42.162;24.754;2023-12-04T05:33:38;100483.13;;;2.82;89.30
64616;BME280;51027;42.162;24.754;2023-12-04T05:36:04;100493.50;;;2.78;87.20
64616;BME280;51027;42.162;24.754;2023-12-04T05:38:30;100497.00;;;2.86;86.58
64616;BME280;51027;42.162;24.754;2023-12-04T05:40:55;100499.69;;;3.04;84.99
64616;BME280;51027;42.162;24.754;2023-12-04T05:43:20;100501.47;;;3.07;85.53
64616;BME280;51027;42.162;24.754;2023-12-04T05:45:46;100452.72;;;2.68;84.19
64616;BME280;51027;42.162;24.754;2023-12-04T05:48:12;100504.88;;;2.97;84.72
64616;BME280;51027;42.162;24.754;2023-12-04T05:50:38;100494.34;;;2.68;86.48
64616;BME280;51027;42.162;24.754;2023-12-04T05:53:06;100516.94;;;2.85;85.89
64616;BME280;51027;42.162;24.754;2023-12-04T05:55:32;100512.66;;;2.91;85.62
64616;BME280;51027;42.162;24.754;2023-12-04T05:57:58;100504.84;;;2.95;85.88
64616;BME280;51027;42.162;24.754;2023-12-04T06:00:23;100518.75;;;2.97;85.16
64616;BME280;51027;42.162;24.754;2023-12-04T06:02:48;100523.88;;;2.80;82.47
64616;BME280;51027;42.162;24.754;2023-12-04T06:05:14;100535.16;;;2.81;82.25
64616;BME280;51027;42.162;24.754;2023-12-04T06:07:39;100519.41;;;2.58;80.79
64616;BME280;51027;42.162;24.754;2023-12-04T06:10:06;100535.19;;;2.87;81.87
64616;BME280;51027;42.162;24.754;2023-12-04T06:12:36;100534.38;;;3.02;81.35
64616;BME280;51027;42.162;24.754;2023-12-04T06:15:02;100516.06;;;2.82;81.30
64616;BME280;51027;42.162;24.754;2023-12-04T06:17:28;100524.78;;;2.88;81.05
64616;BME280;51027;42.162;24.754;2023-12-04T06:19:54;100538.78;;;3.12;81.69
64616;BME280;51027;42.162;24.754;2023-12-04T06:22:20;100524.88;;;3.07;81.46
64616;BME280;51027;42.162;24.754;2023-12-04T06:24:47;100535.25;;;3.02;82.00
64616;BME280;51027;42.162;24.754;2023-12-04T06:27:17;100547.50;;;3.26;82.99
64616;BME280;51027;42.162;24.754;2023-12-04T06:29:45;100541.31;;;2.98;82.95
64616;BME280;51027;42.162;24.754;2023-12-04T06:32:12;100563.94;;;3.11;83.48
64616;BME280;51027;42.162;24.754;2023-12-04T06:34:37;100559.63;;;3.24;82.82
64616;BME280;51027;42.162;24.754;2023-12-04T06:37:06;100549.22;;;3.21;82.84
64616;BME280;51027;42.162;24.754;2023-12-04T06:39:34;100557.91;;;3.26;80.86
64616;BME280;51027;42.162;24.754;2023-12-04T06:42:04;100579.66;;;3.31;81.81
64616;BME280;51027;42.162;24.754;2023-12-04T06:44:30;100570.06;;;3.24;81.20
64616;BME280;51027;42.162;24.754;2023-12-04T06:47:00;100574.47;;;3.45;80.84
64616;BME280;51027;42.162;24.754;2023-12-04T06:49:29;100579.66;;;3.31;82.11
64616;BME280;51027;42.162;24.754;2023-12-04T06:51:55;100560.59;;;3.40;81.33
64616;BME280;51027;42.162;24.754;2023-12-04T06:54:20;100578.81;;;3.43;81.45
64616;BME280;51027;42.162;24.754;2023-12-04T06:56:46;100574.41;;;3.25;80.04
64616;BME280;51027;42.162;24.754;2023-12-04T06:59:11;100571.88;;;3.42;80.56
64616;BME280;51027;42.162;24.754;2023-12-04T07:01:37;100584.03;;;3.44;79.54
64616;BME280;51027;42.162;24.754;2023-12-04T07:04:03;100585.72;;;3.30;79.54
64616;BME280;51027;42.162;24.754;2023-12-04T07:06:36;100592.66;;;3.34;80.07
64616;BME280;51027;42.162;24.754;2023-12-04T07:09:02;100595.22;;;3.27;79.91
64616;BME280;51027;42.162;24.754;2023-12-04T07:11:27;100598.72;;;3.27;80.44
64616;BME280;51027;42.162;24.754;2023-12-04T07:13:53;100573.47;;;3.14;80.64
64616;BME280;51027;42.162;24.754;2023-12-04T07:16:18;100596.09;;;3.24;80.47
64616;BME280;51027;42.162;24.754;2023-12-04T07:18:44;100599.66;;;3.44;80.26
64616;BME280;51027;42.162;24.754;2023-12-04T07:21:09;100568.38;;;3.32;80.37
64616;BME280;51027;42.162;24.754;2023-12-04T07:23:35;100597.09;;;3.57;80.12
64616;BME280;51027;42.162;24.754;2023-12-04T07:26:00;100580.63;;;3.61;79.31
64616;BME280;51027;42.162;24.754;2023-12-04T07:28:26;100581.41;;;3.41;79.49
64616;BME280;51027;42.162;24.754;2023-12-04T07:30:52;100592.78;;;3.60;79.52
64616;BME280;51027;42.162;24.754;2023-12-04T07:33:17;100603.28;;;3.91;79.10
64616;BME280;51027;42.162;24.754;2023-12-04T07:35:46;100617.09;;;3.64;79.05
64616;BME280;51027;42.162;24.754;2023-12-04T07:38:12;100587.56;;;3.66;78.82
64616;BME280;51027;42.162;24.754;2023-12-04T07:40:38;100599.81;;;3.89;78.67
64616;BME280;51027;42.162;24.754;2023-12-04T07:43:03;100619.78;;;3.91;78.75
64616;BME280;51027;42.162;24.754;2023-12-04T07:45:29;100606.72;;;3.76;78.55
64616;BME280;51027;42.162;24.754;2023-12-04T07:47:54;100591.88;;;3.52;78.30
64616;BME280;51027;42.162;24.754;2023-12-04T07:50:20;100611.09;;;3.80;78.96
64616;BME280;51027;42.162;24.754;2023-12-04T07:52:45;100592.81;;;3.77;77.91
64616;BME280;51027;42.162;24.754;2023-12-04T07:55:11;100593.75;;;4.05;78.29
64616;BME280;51027;42.162;24.754;2023-12-04T07:57:36;100592.03;;;4.02;76.74
64616;BME280;51027;42.162;24.754;2023-12-04T08:00:02;100619.88;;;4.34;75.82
64616;BME280;51027;42.162;24.754;2023-12-04T08:02:28;100610.28;;;4.28;74.92
64616;BME280;51027;42.162;24.754;2023-12-04T08:04:53;100618.13;;;4.24;74.46
64616;BME280;51027;42.162;24.754;2023-12-04T08:07:19;100605.97;;;4.20;74.56
64616;BME280;51027;42.162;24.754;2023-12-04T08:09:44;100610.25;;;4.02;75.07
64616;BME280;51027;42.162;24.754;2023-12-04T08:12:10;100604.22;;;4.36;75.13
64616;BME280;51027;42.162;24.754;2023-12-04T08:14:35;100625.06;;;4.23;74.42
64616;BME280;51027;42.162;24.754;2023-12-04T08:17:01;100604.22;;;4.22;74.27
64616;BME280;51027;42.162;24.754;2023-12-04T08:19:26;100612.06;;;4.29;74.23
64616;BME280;51027;42.162;24.754;2023-12-04T08:21:52;100599.00;;;4.28;73.90
64616;BME280;51027;42.162;24.754;2023-12-04T08:24:17;100552.06;;;4.32;73.88
64616;BME280;51027;42.162;24.754;2023-12-04T08:26:45;100610.28;;;4.88;73.01
64616;BME280;51027;42.162;24.754;2023-12-04T08:29:11;100605.09;;;4.71;72.11
64616;BME280;51027;42.162;24.754;2023-12-04T08:31:36;100612.00;;;5.06;73.02
64616;BME280;51027;42.162;24.754;2023-12-04T08:34:02;100600.69;;;5.04;71.96
64616;BME280;51027;42.162;24.754;2023-12-04T08:36:28;100609.41;;;5.12;72.51
64616;BME280;51027;42.162;24.754;2023-12-04T08:38:53;100597.19;;;5.14;72.05
64616;BME280;51027;42.162;24.754;2023-12-04T08:41:19;100600.72;;;4.96;72.11
64616;BME280;51027;42.162;24.754;2023-12-04T08:43:45;100612.88;;;5.06;73.19
64616;BME280;51027;42.162;24.754;2023-12-04T08:46:14;100584.16;;;5.06;72.26
64616;BME280;51027;42.162;24.754;2023-12-04T08:48:40;100607.72;;;4.80;72.84
64616;BME280;51027;42.162;24.754;2023-12-04T08:51:06;100616.31;;;5.19;72.77
64616;BME280;51027;42.162;24.754;2023-12-04T08:53:33;100609.38;;;5.07;72.46
64616;BME280;51027;42.162;24.754;2023-12-04T08:55:59;100621.59;;;5.01;72.99
64616;BME280;51027;42.162;24.754;2023-12-04T08:58:24;100611.09;;;5.27;73.11
64616;BME280;51027;42.162;24.754;2023-12-04T09:00:50;100629.34;;;5.33;72.92
64616;BME280;51027;42.162;24.754;2023-12-04T09:03:15;100601.56;;;5.00;73.40
64616;BME280;51027;42.162;24.754;2023-12-04T09:05:42;100598.91;;;5.18;74.21
64616;BME280;51027;42.162;24.754;2023-12-04T09:08:07;100614.59;;;5.16;74.30
64616;BME280;51027;42.162;24.754;2023-12-04T09:10:33;100624.13;;;5.34;74.04
64616;BME280;51027;42.162;24.754;2023-12-04T09:12:59;100611.06;;;5.36;73.41
64616;BME280;51027;42.162;24.754;2023-12-04T09:15:24;100624.97;;;5.38;74.58
64616;BME280;51027;42.162;24.754;2023-12-04T09:17:50;100614.56;;;5.32;74.24
64616;BME280;51027;42.162;24.754;2023-12-04T09:20:18;100607.41;;;5.72;74.50
64616;BME280;51027;42.162;24.754;2023-12-04T09:22:47;100596.97;;;5.69;73.96
64616;BME280;51027;42.162;24.754;2023-12-04T09:25:13;100598.66;;;5.85;74.13
64616;BME280;51027;42.162;24.754;2023-12-04T09:27:38;100598.59;;;6.00;74.08
64616;BME280;51027;42.162;24.754;2023-12-04T09:30:04;100585.44;;;6.13;73.16
64616;BME280;51027;42.162;24.754;2023-12-04T09:32:30;100553.31;;;5.94;73.94
64616;BME280;51027;42.162;24.754;2023-12-04T09:34:56;100589.78;;;6.17;73.86
64616;BME280;51027;42.162;24.754;2023-12-04T09:37:21;100575.69;;;6.31;73.58
64616;BME280;51027;42.162;24.754;2023-12-04T09:39:47;100589.66;;;6.33;72.68
64616;BME280;51027;42.162;24.754;2023-12-04T09:42:15;100578.38;;;6.22;73.63
64616;BME280;51027;42.162;24.754;2023-12-04T09:44:43;100593.84;;;6.54;73.44
64616;BME280;51027;42.162;24.754;2023-12-04T09:47:09;100587.03;;;6.32;73.52
64616;BME280;51027;42.162;24.754;2023-12-04T09:49:35;100577.50;;;6.25;73.25
64616;BME280;51027;42.162;24.754;2023-12-04T09:52:01;100578.44;;;6.18;73.55
64616;BME280;51027;42.162;24.754;2023-12-04T09:54:29;100567.72;;;6.50;73.78
64616;BME280;51027;42.162;24.754;2023-12-04T09:56:55;100554.53;;;6.59;73.32
64616;BME280;51027;42.162;24.754;2023-12-04T09:59:23;100582.97;;;6.99;72.78
64616;BME280;51027;42.162;24.754;2023-12-04T10:01:51;100571.22;;;6.47;73.42
64616;BME280;51027;42.162;24.754;2023-12-04T10:04:17;100573.94;;;6.35;74.16
64616;BME280;51027;42.162;24.754;2023-12-04T10:06:43;100570.25;;;6.59;73.26
64616;BME280;51027;42.162;24.754;2023-12-04T10:09:10;100552.66;;;6.75;73.88
64616;BME280;51027;42.162;24.754;2023-12-04T10:11:41;100561.88;;;7.11;72.17
64616;BME280;51027;42.162;24.754;2023-12-04T10:14:33;100575.25;;;6.82;72.97
64616;BME280;51027;42.162;24.754;2023-12-04T10:16:59;100548.47;;;6.55;73.91
64616;BME280;51027;42.162;24.754;2023-12-04T10:19:28;100571.00;;;6.72;74.23
64616;BME280;51027;42.162;24.754;2023-12-04T10:21:58;100574.41;;;6.80;73.37
64616;BME280;51027;42.162;24.754;2023-12-04T10:24:35;100571.56;;;7.01;73.86
64616;BME280;51027;42.162;24.754;2023-12-04T10:27:05;100571.63;;;6.98;73.34
64616;BME280;51027;42.162;24.754;2023-12-04T10:29:48;100542.88;;;6.90;73.79
64616;BME280;51027;42.162;24.754;2023-12-04T10:32:18;100564.03;;;7.50;73.66
64616;BME280;51027;42.162;24.754;2023-12-04T10:34:47;100553.50;;;7.52;73.24
64616;BME280;51027;42.162;24.754;2023-12-04T10:37:13;100559.97;;;7.27;73.52
64616;BME280;51027;42.162;24.754;2023-12-04T10:39:47;100564.53;;;7.05;73.99
64616;BME280;51027;42.162;24.754;2023-12-04T10:42:29;100554.31;;;7.56;73.26
64616;BME280;51027;42.162;24.754;2023-12-04T10:44:58;100522.66;;;7.72;72.93
64616;BME280;51027;42.162;24.754;2023-12-04T10:47:24;100550.97;;;8.09;72.54
64616;BME280;51027;42.162;24.754;2023-12-04T10:49:57;100549.69;;;7.77;73.58
64616;BME280;51027;42.162;24.754;2023-12-04T10:52:23;100543.25;;;7.97;73.46
64616;BME280;51027;42.162;24.754;2023-12-04T10:54:48;100550.78;;;7.61;74.35
64616;BME280;51027;42.162;24.754;2023-12-04T10:57:31;100550.78;;;7.60;74.10
64616;BME280;51027;42.162;24.754;2023-12-04T11:00:03;100550.59;;;7.73;73.63
64616;BME280;51027;42.162;24.754;2023-12-04T11:02:38;100558.50;;;7.70;73.79
64616;BME280;51027;42.162;24.754;2023-12-04T11:05:14;100555.19;;;7.59;73.71
64616;BME280;51027;42.162;24.754;2023-12-04T11:07:47;100552.97;;;7.27;72.98
64616;BME280;51027;42.162;24.754;2023-12-04T11:10:15;100561.41;;;7.50;73.21
64616;BME280;51027;42.162;24.754;2023-12-04T11:12:44;100548.81;;;7.77;71.77
64616;BME280;51027;42.162;24.754;2023-12-04T11:15:16;100554.50;;;8.05;71.43
64616;BME280;51027;42.162;24.754;2023-12-04T11:17:46;100557.94;;;7.48;72.53
64616;BME280;51027;42.162;24.754;2023-12-04T11:20:21;100558.78;;;8.12;72.75
64616;BME280;51027;42.162;24.754;2023-12-04T11:22:50;100531.47;;;7.65;71.52
64616;BME280;51027;42.162;24.754;2023-12-04T11:25:17;100547.47;;;7.45;71.75
64616;BME280;51027;42.162;24.754;2023-12-04T11:27:49;100543.00;;;8.14;70.45
64616;BME280;51027;42.162;24.754;2023-12-04T11:30:21;100556.69;;;7.75;71.37
64616;BME280;51027;42.162;24.754;2023-12-04T11:32:53;100546.38;;;7.63;71.35
64616;BME280;51027;42.162;24.754;2023-12-04T11:35:25;100556.84;;;7.63;72.03
64616;BME280;51027;42.162;24.754;2023-12-04T11:37:52;100560.09;;;7.82;72.33
64616;BME280;51027;42.162;24.754;2023-12-04T11:40:18;100544.19;;;7.94;72.15
64616;BME280;51027;42.162;24.754;2023-12-04T11:42:43;100544.22;;;7.91;72.09
64616;BME280;51027;42.162;24.754;2023-12-04T11:45:09;100564.78;;;8.20;72.04
64616;BME280;51027;42.162;24.754;2023-12-04T11:47:55;100561.84;;;8.42;70.60
64616;BME280;51027;42.162;24.754;2023-12-04T11:50:23;100553.44;;;8.20;70.58
64616;BME280;51027;42.162;24.754;2023-12-04T11:52:49;100567.59;;;8.63;70.35
64616;BME280;51027;42.162;24.754;2023-12-04T11:55:21;100557.00;;;8.68;70.23
64616;BME280;51027;42.162;24.754;2023-12-04T11:57:49;100568.38;;;8.70;71.95
64616;BME280;51027;42.162;24.754;2023-12-04T12:03:05;100564.88;;;8.70;71.43
64616;BME280;51027;42.162;24.754;2023-12-04T12:05:34;100575.56;;;8.57;71.67
64616;BME280;51027;42.162;24.754;2023-12-04T12:08:03;100571.22;;;8.56;69.73
64616;BME280;51027;42.162;24.754;2023-12-04T12:10:30;100573.03;;;8.53;69.99
64616;BME280;51027;42.162;24.754;2023-12-04T12:12:56;100542.56;;;8.44;68.92
64616;BME280;51027;42.162;24.754;2023-12-04T12:15:24;100566.72;;;8.64;69.16
64616;BME280;51027;42.162;24.754;2023-12-04T12:17:50;100567.38;;;8.76;69.09
64616;BME280;51027;42.162;24.754;2023-12-04T12:20:20;100552.19;;;8.44;67.83
64616;BME280;51027;42.162;24.754;2023-12-04T12:22:49;100550.09;;;8.64;67.50
64616;BME280;51027;42.162;24.754;2023-12-04T12:25:15;100560.38;;;8.76;68.29
64616;BME280;51027;42.162;24.754;2023-12-04T12:27:40;100560.97;;;8.92;68.08
64616;BME280;51027;42.162;24.754;2023-12-04T12:30:07;100563.31;;;8.58;67.55
64616;BME280;51027;42.162;24.754;2023-12-04T12:32:33;100552.06;;;9.01;68.08
64616;BME280;51027;42.162;24.754;2023-12-04T12:35:00;100551.28;;;8.94;68.33
64616;BME280;51027;42.162;24.754;2023-12-04T12:37:25;100550.28;;;9.01;66.99
64616;BME280;51027;42.162;24.754;2023-12-04T12:39:52;100553.47;;;9.17;66.62
64616;BME280;51027;42.162;24.754;2023-12-04T12:42:28;100548.88;;;9.28;66.25
64616;BME280;51027;42.162;24.754;2023-12-04T12:44:54;100546.25;;;9.28;66.31
64616;BME280;51027;42.162;24.754;2023-12-04T12:47:21;100561.38;;;9.15;65.54